sensor_id;sensor_type;location;lat;lon;timestamp;pressure;altitude;pressure_sealevel;temperature;humidity
59513;BME280;45330;51.634;5.562;2023-02-11T00:01:15;103356.03;;;5.12;100.00
59513;BME280;45330;51.634;5.562;2023-02-11T00:03:43;103372.91;;;5.22;100.00
59513;BME280;45330;51.634;5.562;2023-02-11T00:06:10;103361.19;;;5.12;100.00
59513;BME280;45330;51.634;5.562;2023-02-11T00:08:36;103341.72;;;5.02;100.00
59513;BME280;45330;51.634;5.562;2023-02-11T00:11:02;103358.50;;;5.10;100.00
59513;BME280;45330;51.634;5.562;2023-02-11T00:13:28;103366.00;;;5.21;100.00
59513;BME280;45330;51.634;5.562;2023-02-11T00:15:53;103367.03;;;5.24;100.00
59513;BME280;45330;51.634;5.562;2023-02-11T00:18:21;103354.66;;;5.19;100.00
59513;BME280;45330;51.634;5.562;2023-02-11T00:20:46;103354.94;;;5.23;100.00
59513;BME280;45330;51.634;5.562;2023-02-11T00:23:12;103342.22;;;5.11;100.00
59513;BME280;45330;51.634;5.562;2023-02-11T00:25:42;103346.69;;;5.14;100.00
59513;BME280;45330;51.634;5.562;2023-02-11T00:28:09;103337.06;;;5.11;100.00
59513;BME280;45330;51.634;5.562;2023-02-11T00:30:35;103351.84;;;5.14;100.00
59513;BME280;45330;51.634;5.562;2023-02-11T00:33:01;103360.00;;;5.22;100.00
59513;BME280;45330;51.634;5.562;2023-02-11T00:35:27;103366.25;;;5.25;100.00
59513;BME280;45330;51.634;5.562;2023-02-11T00:37:53;103356.72;;;5.24;100.00
59513;BME280;45330;51.634;5.562;2023-02-11T00:40:19;103338.13;;;5.15;100.00
59513;BME280;45330;51.634;5.562;2023-02-11T00:42:44;103357.69;;;5.26;100.00
59513;BME280;45330;51.634;5.562;2023-02-11T00:45:10;103357.41;;;5.22;100.00
59513;BME280;45330;51.634;5.562;2023-02-11T00:47:35;103357.69;;;5.26;100.00
59513;BME280;45330;51.634;5.562;2023-02-11T00:50:02;103339.81;;;5.14;100.00
59513;BME280;45330;51.634;5.562;2023-02-11T00:52:30;103364.66;;;5.27;100.00
59513;BME280;45330;51.634;5.562;2023-02-11T00:54:55;103339.88;;;5.16;100.00
59513;BME280;45330;51.634;5.562;2023-02-11T00:57:21;103364.66;;;5.27;100.00
59513;BME280;45330;51.634;5.562;2023-02-11T00:59:46;103346.69;;;5.14;100.00
59513;BME280;45330;51.634;5.562;2023-02-11T01:02:12;103351.22;;;5.18;100.00
59513;BME280;45330;51.634;5.562;2023-02-11T01:04:37;103369.81;;;5.27;100.00
59513;BME280;45330;51.634;5.562;2023-02-11T01:07:02;103352.00;;;5.17;100.00
59513;BME280;45330;51.634;5.562;2023-02-11T01:09:28;103356.28;;;5.17;100.00
59513;BME280;45330;51.634;5.562;2023-02-11T01:11:53;103368.81;;;5.25;100.00
59513;BME280;45330;51.634;5.562;2023-02-11T01:14:18;103340.44;;;5.10;100.00
59513;BME280;45330;51.634;5.562;2023-02-11T01:16:44;103348.38;;;5.13;100.00
59513;BME280;45330;51.634;5.562;2023-02-11T01:19:09;103368.81;;;5.25;100.00
59513;BME280;45330;51.634;5.562;2023-02-11T01:21:34;103350.06;;;5.13;100.00
59513;BME280;45330;51.634;5.562;2023-02-11T01:24:00;103373.91;;;5.24;100.00
59513;BME280;45330;51.634;5.562;2023-02-11T01:26:25;103382.59;;;5.26;100.00
59513;BME280;45330;51.634;5.562;2023-02-11T01:28:50;103382.59;;;5.26;100.00
59513;BME280;45330;51.634;5.562;2023-02-11T01:31:16;103373.91;;;5.24;100.00
59513;BME280;45330;51.634;5.562;2023-02-11T01:33:41;103363.66;;;5.25;100.00
59513;BME280;45330;51.634;5.562;2023-02-11T01:36:07;103335.28;;;5.10;100.00
59513;BME280;45330;51.634;5.562;2023-02-11T01:38:33;103336.09;;;5.09;100.00
59513;BME280;45330;51.634;5.562;2023-02-11T01:41:05;103357.53;;;5.23;100.00
59513;BME280;45330;51.634;5.562;2023-02-11T01:43:34;103328.59;;;5.14;100.00
59513;BME280;45330;51.634;5.562;2023-02-11T01:48:54;103300.44;;;5.02;100.00
59513;BME280;45330;51.634;5.562;2023-02-11T01:51:25;103299.34;;;4.98;100.00
59513;BME280;45330;51.634;5.562;2023-02-11T01:53:52;103322.91;;;5.05;100.00
59513;BME280;45330;51.634;5.562;2023-02-11T01:56:38;103328.91;;;5.04;100.00
59513;BME280;45330;51.634;5.562;2023-02-11T02:05:15;103326.31;;;5.04;100.00
59513;BME280;45330;51.634;5.562;2023-02-11T02:10:22;103313.50;;;4.90;100.00
59513;BME280;45330;51.634;5.562;2023-02-11T02:12:49;103333.84;;;5.01;100.00
59513;BME280;45330;51.634;5.562;2023-02-11T02:15:24;103334.59;;;4.98;100.00
59513;BME280;45330;51.634;5.562;2023-02-11T02:34:52;103333.59;;;5.11;100.00
59513;BME280;45330;51.634;5.562;2023-02-11T02:40:10;103328.44;;;5.11;100.00
59513;BME280;45330;51.634;5.562;2023-02-11T02:42:37;103322.56;;;5.13;100.00
59513;BME280;45330;51.634;5.562;2023-02-11T02:45:06;103298.72;;;5.03;100.00
59513;BME280;45330;51.634;5.562;2023-02-11T02:47:32;103303.97;;;5.04;100.00
59513;BME280;45330;51.634;5.562;2023-02-11T02:49:57;103323.44;;;5.14;100.00
59513;BME280;45330;51.634;5.562;2023-02-11T02:57:52;103333.84;;;5.15;100.00
59513;BME280;45330;51.634;5.562;2023-02-11T03:00:23;103334.56;;;5.13;100.00
59513;BME280;45330;51.634;5.562;2023-02-11T03:06:33;103328.53;;;5.12;100.00
59513;BME280;45330;51.634;5.562;2023-02-11T03:08:58;103322.28;;;5.09;100.00
59513;BME280;45330;51.634;5.562;2023-02-11T03:11:25;103301.59;;;4.92;100.00
59513;BME280;45330;51.634;5.562;2023-02-11T03:13:53;103298.81;;;4.89;100.00
59513;BME280;45330;51.634;5.562;2023-02-11T03:16:23;103310.31;;;4.94;100.00
59513;BME280;45330;51.634;5.562;2023-02-11T03:18:55;103320.63;;;4.94;100.00
59513;BME280;45330;51.634;5.562;2023-02-11T03:21:23;103314.50;;;4.92;100.00
59513;BME280;45330;51.634;5.562;2023-02-11T03:23:52;103305.75;;;4.90;100.00
59513;BME280;45330;51.634;5.562;2023-02-11T03:26:27;103297.31;;;4.78;100.00
59513;BME280;45330;51.634;5.562;2023-02-11T03:29:02;103302.22;;;4.73;100.00
59513;BME280;45330;51.634;5.562;2023-02-11T03:31:36;103318.78;;;4.77;100.00
59513;BME280;45330;51.634;5.562;2023-02-11T03:37:34;103324.38;;;4.85;100.00
59513;BME280;45330;51.634;5.562;2023-02-11T03:40:10;103277.03;;;4.54;100.00
59513;BME280;45330;51.634;5.562;2023-02-11T03:42:45;103319.81;;;4.80;100.00
59513;BME280;45330;51.634;5.562;2023-02-11T03:45:15;103318.94;;;4.80;100.00
59513;BME280;45330;51.634;5.562;2023-02-11T03:47:45;103301.44;;;4.74;100.00
59513;BME280;45330;51.634;5.562;2023-02-11T03:50:14;103301.59;;;4.77;100.00
59513;BME280;45330;51.634;5.562;2023-02-11T03:52:40;103297.31;;;4.78;100.00
59513;BME280;45330;51.634;5.562;2023-02-11T03:55:10;103308.81;;;4.83;100.00
59513;BME280;45330;51.634;5.562;2023-02-11T03:57:37;103305.06;;;4.78;100.00
59513;BME280;45330;51.634;5.562;2023-02-11T04:00:04;103296.53;;;4.79;100.00
59513;BME280;45330;51.634;5.562;2023-02-11T04:02:32;103293.31;;;4.68;100.00
59513;BME280;45330;51.634;5.562;2023-02-11T04:04:58;103282.13;;;4.68;100.00
59513;BME280;45330;51.634;5.562;2023-02-11T04:07:24;103277.75;;;4.67;100.00
59513;BME280;45330;51.634;5.562;2023-02-11T04:09:50;103283.00;;;4.83;100.00
59513;BME280;45330;51.634;5.562;2023-02-11T04:12:15;103275.97;;;4.80;100.00
59513;BME280;45330;51.634;5.562;2023-02-11T04:14:41;103247.88;;;4.70;100.00
59513;BME280;45330;51.634;5.562;2023-02-11T04:17:06;103249.75;;;4.73;100.00
59513;BME280;45330;51.634;5.562;2023-02-11T04:19:32;103265.81;;;4.84;100.00
59513;BME280;45330;51.634;5.562;2023-02-11T04:21:57;103252.97;;;4.69;100.00
59513;BME280;45330;51.634;5.562;2023-02-11T04:24:23;103256.50;;;4.71;100.00
59513;BME280;45330;51.634;5.562;2023-02-11T04:26:48;103275.81;;;4.77;100.00
59513;BME280;45330;51.634;5.562;2023-02-11T04:29:14;103274.09;;;4.78;100.00
59513;BME280;45330;51.634;5.562;2023-02-11T04:31:39;103259.88;;;4.70;100.00
59513;BME280;45330;51.634;5.562;2023-02-11T04:34:04;103283.00;;;4.83;100.00
59513;BME280;45330;51.634;5.562;2023-02-11T04:36:30;103281.38;;;4.85;100.00
59513;BME280;45330;51.634;5.562;2023-02-11T04:38:55;103285.59;;;4.83;100.00
59513;BME280;45330;51.634;5.562;2023-02-11T04:41:20;103268.06;;;4.77;100.00
59513;BME280;45330;51.634;5.562;2023-02-11T04:43:46;103270.56;;;4.76;100.00
59513;BME280;45330;51.634;5.562;2023-02-11T04:46:11;103274.09;;;4.78;100.00
59513;BME280;45330;51.634;5.562;2023-02-11T04:48:36;103281.91;;;4.79;100.00
59513;BME280;45330;51.634;5.562;2023-02-11T04:51:02;103300.78;;;4.93;100.00
59513;BME280;45330;51.634;5.562;2023-02-11T04:53:28;103288.00;;;4.80;100.00
59513;BME280;45330;51.634;5.562;2023-02-11T04:55:53;103284.63;;;4.81;100.00
59513;BME280;45330;51.634;5.562;2023-02-11T04:58:19;103272.53;;;4.80;100.00
59513;BME280;45330;51.634;5.562;2023-02-11T05:00:45;103302.56;;;4.94;100.00
59513;BME280;45330;51.634;5.562;2023-02-11T05:03:11;103307.81;;;4.96;100.00
59513;BME280;45330;51.634;5.562;2023-02-11T05:05:41;103308.72;;;4.96;100.00
59513;BME280;45330;51.634;5.562;2023-02-11T05:08:08;103279.78;;;4.87;100.00
59513;BME280;45330;51.634;5.562;2023-02-11T05:10:33;103302.81;;;4.99;100.00
59513;BME280;45330;51.634;5.562;2023-02-11T05:12:59;103304.59;;;5.00;100.00
59513;BME280;45330;51.634;5.562;2023-02-11T05:15:25;103287.63;;;4.89;100.00
59513;BME280;45330;51.634;5.562;2023-02-11T05:17:50;103297.47;;;4.96;100.00
59513;BME280;45330;51.634;5.562;2023-02-11T05:20:16;103282.53;;;4.90;100.00
59513;BME280;45330;51.634;5.562;2023-02-11T05:22:41;103278.38;;;4.92;100.00
59513;BME280;45330;51.634;5.562;2023-02-11T05:25:06;103273.09;;;4.91;100.00
59513;BME280;45330;51.634;5.562;2023-02-11T05:27:32;103291.69;;;5.00;100.00
59513;BME280;45330;51.634;5.562;2023-02-11T05:29:57;103288.88;;;4.95;100.00
59513;BME280;45330;51.634;5.562;2023-02-11T05:32:23;103292.50;;;4.99;100.00
59513;BME280;45330;51.634;5.562;2023-02-11T05:34:48;103283.78;;;4.97;100.00
59513;BME280;45330;51.634;5.562;2023-02-11T05:37:13;103288.25;;;5.00;100.00
59513;BME280;45330;51.634;5.562;2023-02-11T05:39:39;103270.34;;;4.88;100.00
59513;BME280;45330;51.634;5.562;2023-02-11T05:42:05;103285.66;;;5.00;100.00
59513;BME280;45330;51.634;5.562;2023-02-11T05:44:31;103287.25;;;4.97;100.00
59513;BME280;45330;51.634;5.562;2023-02-11T05:46:56;103291.63;;;4.98;100.00
59513;BME280;45330;51.634;5.562;2023-02-11T05:49:21;103287.25;;;4.97;100.00
59513;BME280;45330;51.634;5.562;2023-02-11T05:51:47;103294.19;;;4.98;100.00
59513;BME280;45330;51.634;5.562;2023-02-11T05:54:12;103293.31;;;4.98;100.00
59513;BME280;45330;51.634;5.562;2023-02-11T05:56:38;103265.91;;;4.85;100.00
59513;BME280;45330;51.634;5.562;2023-02-11T05:59:03;103268.41;;;4.84;100.00
59513;BME280;45330;51.634;5.562;2023-02-11T06:01:28;103283.34;;;4.89;100.00
59513;BME280;45330;51.634;5.562;2023-02-11T06:03:54;103290.00;;;5.01;100.00
59513;BME280;45330;51.634;5.562;2023-02-11T06:06:20;103272.22;;;4.90;100.00
59513;BME280;45330;51.634;5.562;2023-02-11T06:08:45;103283.06;;;5.00;100.00
59513;BME280;45330;51.634;5.562;2023-02-11T06:11:13;103295.97;;;5.00;100.00
59513;BME280;45330;51.634;5.562;2023-02-11T06:13:39;103294.19;;;4.98;100.00
59513;BME280;45330;51.634;5.562;2023-02-11T06:16:04;103275.34;;;4.85;100.00
59513;BME280;45330;51.634;5.562;2023-02-11T06:18:30;103301.13;;;5.00;100.00
59513;BME280;45330;51.634;5.562;2023-02-11T06:20:58;103303.72;;;5.00;100.00
59513;BME280;45330;51.634;5.562;2023-02-11T06:23:23;103302.09;;;5.02;100.00
59513;BME280;45330;51.634;5.562;2023-02-11T06:25:49;103302.09;;;5.02;100.00
59513;BME280;45330;51.634;5.562;2023-02-11T06:28:14;103281.75;;;4.91;100.00
59513;BME280;45330;51.634;5.562;2023-02-11T06:30:40;103297.94;;;5.04;100.00
59513;BME280;45330;51.634;5.562;2023-02-11T06:33:05;103281.91;;;4.94;100.00
59513;BME280;45330;51.634;5.562;2023-02-11T06:35:31;103295.97;;;5.00;100.00
59513;BME280;45330;51.634;5.562;2023-02-11T06:37:57;103305.84;;;5.07;100.00
59513;BME280;45330;51.634;5.562;2023-02-11T06:40:23;103305.03;;;5.08;100.00
59513;BME280;45330;51.634;5.562;2023-02-11T06:42:48;103306.72;;;5.07;100.00
59513;BME280;45330;51.634;5.562;2023-02-11T06:45:14;103288.94;;;4.97;100.00
59513;BME280;45330;51.634;5.562;2023-02-11T06:47:39;103291.53;;;4.97;100.00
59513;BME280;45330;51.634;5.562;2023-02-11T06:50:07;103304.84;;;5.05;100.00
59513;BME280;45330;51.634;5.562;2023-02-11T06:52:33;103308.59;;;5.10;100.00
59513;BME280;45330;51.634;5.562;2023-02-11T06:54:58;103317.50;;;5.15;100.00
59513;BME280;45330;51.634;5.562;2023-02-11T06:57:24;103294.34;;;5.02;100.00
59513;BME280;45330;51.634;5.562;2023-02-11T06:59:49;103317.41;;;5.13;100.00
59513;BME280;45330;51.634;5.562;2023-02-11T07:02:15;103286.63;;;5.02;100.00
59513;BME280;45330;51.634;5.562;2023-02-11T07:04:40;103292.03;;;5.06;100.00
59513;BME280;45330;51.634;5.562;2023-02-11T07:07:06;103318.38;;;5.15;100.00
59513;BME280;45330;51.634;5.562;2023-02-11T07:09:31;103324.53;;;5.18;100.00
59513;BME280;45330;51.634;5.562;2023-02-11T07:11:56;103307.72;;;5.09;100.00
59513;BME280;45330;51.634;5.562;2023-02-11T07:14:22;103317.50;;;5.15;100.00
59513;BME280;45330;51.634;5.562;2023-02-11T07:16:47;103327.09;;;5.18;100.00
59513;BME280;45330;51.634;5.562;2023-02-11T07:19:12;103317.50;;;5.15;100.00
59513;BME280;45330;51.634;5.562;2023-02-11T07:21:38;103325.41;;;5.18;100.00
59513;BME280;45330;51.634;5.562;2023-02-11T07:24:08;103329.22;;;5.25;100.00
59513;BME280;45330;51.634;5.562;2023-02-11T07:26:35;103337.06;;;5.26;100.00
59513;BME280;45330;51.634;5.562;2023-02-11T07:29:01;103311.63;;;5.18;100.00
59513;BME280;45330;51.634;5.562;2023-02-11T07:31:28;103337.13;;;5.28;100.00
59513;BME280;45330;51.634;5.562;2023-02-11T07:33:55;103344.16;;;5.30;100.00
59513;BME280;45330;51.634;5.562;2023-02-11T07:36:21;103319.53;;;5.21;100.00
59513;BME280;45330;51.634;5.562;2023-02-11T07:38:47;103339.97;;;5.32;100.00
59513;BME280;45330;51.634;5.562;2023-02-11T07:41:15;103334.78;;;5.32;100.00
59513;BME280;45330;51.634;5.562;2023-02-11T07:43:41;103346.13;;;5.35;100.00
59513;BME280;45330;51.634;5.562;2023-02-11T07:46:09;103332.22;;;5.32;100.00
59513;BME280;45330;51.634;5.562;2023-02-11T07:48:35;103337.53;;;5.36;100.00
59513;BME280;45330;51.634;5.562;2023-02-11T07:51:06;103335.88;;;5.36;100.00
59513;BME280;45330;51.634;5.562;2023-02-11T07:53:31;103363.19;;;5.47;100.00
59513;BME280;45330;51.634;5.562;2023-02-11T07:55:57;103364.22;;;5.51;100.00
59513;BME280;45330;51.634;5.562;2023-02-11T07:58:22;103366.88;;;5.53;100.00
59513;BME280;45330;51.634;5.562;2023-02-11T08:00:47;103360.69;;;5.49;100.00
59513;BME280;45330;51.634;5.562;2023-02-11T08:03:13;103372.31;;;5.57;100.00
59513;BME280;45330;51.634;5.562;2023-02-11T08:05:38;103369.75;;;5.57;100.00
59513;BME280;45330;51.634;5.562;2023-02-11T08:08:03;103368.91;;;5.58;100.00
59513;BME280;45330;51.634;5.562;2023-02-11T08:10:29;103376.03;;;5.62;100.00
59513;BME280;45330;51.634;5.562;2023-02-11T08:12:54;103348.72;;;5.51;100.00
59513;BME280;45330;51.634;5.562;2023-02-11T08:15:20;103343.56;;;5.51;100.00
59513;BME280;45330;51.634;5.562;2023-02-11T08:17:45;103364.91;;;5.63;100.00
59513;BME280;45330;51.634;5.562;2023-02-11T08:20:10;103367.56;;;5.65;100.00
59513;BME280;45330;51.634;5.562;2023-02-11T08:22:36;103347.44;;;5.59;100.00
59513;BME280;45330;51.634;5.562;2023-02-11T08:25:01;103355.28;;;5.61;100.00
59513;BME280;45330;51.634;5.562;2023-02-11T08:27:27;103373.16;;;5.73;100.00
59513;BME280;45330;51.634;5.562;2023-02-11T08:29:53;103366.84;;;5.67;100.00
59513;BME280;45330;51.634;5.562;2023-02-11T08:32:19;103379.47;;;5.78;100.00
59513;BME280;45330;51.634;5.562;2023-02-11T08:34:44;103391.75;;;5.82;100.00
59513;BME280;45330;51.634;5.562;2023-02-11T08:37:10;103372.69;;;5.80;100.00
59513;BME280;45330;51.634;5.562;2023-02-11T08:39:36;103385.47;;;5.93;100.00
59513;BME280;45330;51.634;5.562;2023-02-11T08:42:02;103362.75;;;5.88;100.00
59513;BME280;45330;51.634;5.562;2023-02-11T08:44:27;103370.78;;;5.92;100.00
59513;BME280;45330;51.634;5.562;2023-02-11T08:46:54;103376.31;;;5.98;100.00
59513;BME280;45330;51.634;5.562;2023-02-11T08:49:20;103381.16;;;6.09;100.00
59513;BME280;45330;51.634;5.562;2023-02-11T08:51:47;103360.94;;;6.01;100.00
59513;BME280;45330;51.634;5.562;2023-02-11T08:54:13;103392.00;;;6.18;100.00
59513;BME280;45330;51.634;5.562;2023-02-11T08:56:38;103382.44;;;6.17;100.00
59513;BME280;45330;51.634;5.562;2023-02-11T08:59:04;103378.56;;;6.25;100.00
59513;BME280;45330;51.634;5.562;2023-02-11T09:01:30;103373.56;;;6.28;100.00
59513;BME280;45330;51.634;5.562;2023-02-11T09:03:56;103375.25;;;6.28;100.00
59513;BME280;45330;51.634;5.562;2023-02-11T09:06:23;103375.34;;;6.29;100.00
59513;BME280;45330;51.634;5.562;2023-02-11T09:08:50;103380.38;;;6.26;100.00
59513;BME280;45330;51.634;5.562;2023-02-11T09:11:18;103380.38;;;6.26;100.00
59513;BME280;45330;51.634;5.562;2023-02-11T09:13:44;103405.31;;;6.42;100.00
59513;BME280;45330;51.634;5.562;2023-02-11T09:16:25;103373.00;;;6.34;100.00
59513;BME280;45330;51.634;5.562;2023-02-11T09:18:51;103379.22;;;6.38;100.00
59513;BME280;45330;51.634;5.562;2023-02-11T09:21:18;103388.94;;;6.42;100.00
59513;BME280;45330;51.634;5.562;2023-02-11T09:23:44;103407.56;;;6.52;100.00
59513;BME280;45330;51.634;5.562;2023-02-11T09:26:41;103416.53;;;6.59;100.00
59513;BME280;45330;51.634;5.562;2023-02-11T09:29:06;103413.16;;;6.60;100.00
59513;BME280;45330;51.634;5.562;2023-02-11T09:31:32;103405.31;;;6.59;100.00
59513;BME280;45330;51.634;5.562;2023-02-11T09:34:01;103399.09;;;6.55;100.00
59513;BME280;45330;51.634;5.562;2023-02-11T09:36:29;103413.53;;;6.68;100.00
59513;BME280;45330;51.634;5.562;2023-02-11T09:38:58;103400.94;;;6.58;100.00
59513;BME280;45330;51.634;5.562;2023-02-11T09:44:04;103416.53;;;6.76;100.00
59513;BME280;45330;51.634;5.562;2023-02-11T09:46:34;103400.72;;;6.69;100.00
59513;BME280;45330;51.634;5.562;2023-02-11T09:49:01;103408.19;;;6.81;100.00
59513;BME280;45330;51.634;5.562;2023-02-11T09:51:50;103392.88;;;6.86;100.00
59513;BME280;45330;51.634;5.562;2023-02-11T09:54:51;103405.16;;;6.90;100.00
59513;BME280;45330;51.634;5.562;2023-02-11T09:57:18;103398.22;;;6.89;100.00
59513;BME280;45330;51.634;5.562;2023-02-11T09:59:43;103428.28;;;7.03;100.00
59513;BME280;45330;51.634;5.562;2023-02-11T10:02:19;103395.63;;;6.89;100.00
59513;BME280;45330;51.634;5.562;2023-02-11T10:08:06;103419.22;;;7.12;100.00
59513;BME280;45330;51.634;5.562;2023-02-11T10:13:27;103424.22;;;7.09;100.00
59513;BME280;45330;51.634;5.562;2023-02-11T10:21:54;103443.47;;;7.14;100.00
59513;BME280;45330;51.634;5.562;2023-02-11T10:24:24;103458.56;;;7.22;100.00
59513;BME280;45330;51.634;5.562;2023-02-11T10:26:50;103460.44;;;7.25;100.00
59513;BME280;45330;51.634;5.562;2023-02-11T10:29:37;103448.66;;;7.14;100.00
59513;BME280;45330;51.634;5.562;2023-02-11T10:32:20;103464.66;;;7.23;100.00
59513;BME280;45330;51.634;5.562;2023-02-11T10:34:50;103460.06;;;7.17;100.00
59513;BME280;45330;51.634;5.562;2023-02-11T10:37:17;103479.53;;;7.27;100.00
59513;BME280;45330;51.634;5.562;2023-02-11T10:39:43;103477.75;;;7.26;100.00
59513;BME280;45330;51.634;5.562;2023-02-11T10:42:11;103479.63;;;7.29;100.00
59513;BME280;45330;51.634;5.562;2023-02-11T10:47:20;103476.78;;;7.24;100.00
59513;BME280;45330;51.634;5.562;2023-02-11T10:49:46;103484.88;;;7.30;100.00
59513;BME280;45330;51.634;5.562;2023-02-11T10:52:22;103494.44;;;7.31;100.00
59513;BME280;45330;51.634;5.562;2023-02-11T10:55:14;103469.19;;;7.27;100.00
59513;BME280;45330;51.634;5.562;2023-02-11T10:57:49;103472.72;;;7.29;100.00
59513;BME280;45330;51.634;5.562;2023-02-11T11:00:34;103487.41;;;7.47;100.00
59513;BME280;45330;51.634;5.562;2023-02-11T11:03:03;103474.28;;;7.44;100.00
59513;BME280;45330;51.634;5.562;2023-02-11T11:05:45;103474.69;;;7.51;100.00
59513;BME280;45330;51.634;5.562;2023-02-11T11:08:11;103487.34;;;7.63;100.00
59513;BME280;45330;51.634;5.562;2023-02-11T11:10:43;103494.84;;;7.75;100.00
59513;BME280;45330;51.634;5.562;2023-02-11T11:18:45;103494.31;;;8.00;100.00
59513;BME280;45330;51.634;5.562;2023-02-11T11:21:15;103497.25;;;8.08;100.00
59513;BME280;45330;51.634;5.562;2023-02-11T11:23:48;103489.59;;;8.11;100.00
59513;BME280;45330;51.634;5.562;2023-02-11T11:26:15;103492.63;;;8.20;100.00
59513;BME280;45330;51.634;5.562;2023-02-11T11:28:56;103485.94;;;8.06;100.00
59513;BME280;45330;51.634;5.562;2023-02-11T11:31:30;103502.63;;;8.13;100.00
59513;BME280;45330;51.634;5.562;2023-02-11T11:33:58;103509.19;;;8.04;100.00
59513;BME280;45330;51.634;5.562;2023-02-11T11:36:33;103507.34;;;8.02;100.00
59513;BME280;45330;51.634;5.562;2023-02-11T11:39:03;103508.06;;;7.99;100.00
59513;BME280;45330;51.634;5.562;2023-02-11T11:41:51;103506.28;;;7.98;100.00
59513;BME280;45330;51.634;5.562;2023-02-11T11:44:27;103508.16;;;8.01;100.00
59513;BME280;45330;51.634;5.562;2023-02-11T11:52:18;103497.50;;;8.32;100.00
59513;BME280;45330;51.634;5.562;2023-02-11T11:54:50;103499.72;;;8.43;100.00
59513;BME280;45330;51.634;5.562;2023-02-11T11:57:25;103470.00;;;8.36;100.00
59513;BME280;45330;51.634;5.562;2023-02-11T11:59:52;103491.25;;;8.66;100.00
59513;BME280;45330;51.634;5.562;2023-02-11T12:02:39;103484.03;;;8.79;100.00
59513;BME280;45330;51.634;5.562;2023-02-11T12:13:53;103481.81;;;9.07;100.00
59513;BME280;45330;51.634;5.562;2023-02-11T12:19:33;103474.97;;;9.09;100.00
59513;BME280;45330;51.634;5.562;2023-02-11T12:27:19;103467.88;;;9.48;100.00
59513;BME280;45330;51.634;5.562;2023-02-11T12:30:17;103467.22;;;9.53;100.00
59513;BME280;45330;51.634;5.562;2023-02-11T12:35:37;103455.91;;;9.51;100.00
59513;BME280;45330;51.634;5.562;2023-02-11T12:40:45;103453.16;;;9.69;100.00
59513;BME280;45330;51.634;5.562;2023-02-11T12:43:23;103449.44;;;9.85;100.00
59513;BME280;45330;51.634;5.562;2023-02-11T12:54:28;103448.28;;;9.78;100.00
59513;BME280;45330;51.634;5.562;2023-02-11T12:56:59;103456.19;;;9.59;100.00
59513;BME280;45330;51.634;5.562;2023-02-11T12:59:37;103455.44;;;9.40;100.00
59513;BME280;45330;51.634;5.562;2023-02-11T13:02:14;103447.09;;;9.26;100.00
59513;BME280;45330;51.634;5.562;2023-02-11T13:04:47;103429.53;;;9.00;100.00
59513;BME280;45330;51.634;5.562;2023-02-11T13:07:14;103441.25;;;9.11;100.00
59513;BME280;45330;51.634;5.562;2023-02-11T13:09:53;103452.16;;;9.02;100.00
59513;BME280;45330;51.634;5.562;2023-02-11T13:12:21;103455.31;;;8.95;100.00
59513;BME280;45330;51.634;5.562;2023-02-11T13:15:12;103455.25;;;8.93;100.00
59513;BME280;45330;51.634;5.562;2023-02-11T13:17:49;103448.03;;;8.86;100.00
59513;BME280;45330;51.634;5.562;2023-02-11T13:20:34;103447.13;;;8.86;100.00
59513;BME280;45330;51.634;5.562;2023-02-11T13:23:13;103430.47;;;8.81;100.00
59513;BME280;45330;51.634;5.562;2023-02-11T13:26:01;103446.94;;;9.02;100.00
59513;BME280;45330;51.634;5.562;2023-02-11T13:31:01;103455.50;;;9.21;100.00
59513;BME280;45330;51.634;5.562;2023-02-11T13:38:26;103449.25;;;9.37;100.00
59513;BME280;45330;51.634;5.562;2023-02-11T13:43:27;103451.28;;;9.44;100.00
59513;BME280;45330;51.634;5.562;2023-02-11T13:46:07;103435.41;;;9.38;100.00
59513;BME280;45330;51.634;5.562;2023-02-11T13:48:44;103436.94;;;9.54;100.00
59513;BME280;45330;51.634;5.562;2023-02-11T13:51:13;103448.78;;;9.68;100.00
59513;BME280;45330;51.634;5.562;2023-02-11T13:53:45;103420.06;;;9.65;100.00
59513;BME280;45330;51.634;5.562;2023-02-11T13:58:58;103435.41;;;9.82;100.00
59513;BME280;45330;51.634;5.562;2023-02-11T14:04:23;103459.00;;;9.86;100.00
59513;BME280;45330;51.634;5.562;2023-02-11T14:07:29;103451.28;;;9.88;100.00
59513;BME280;45330;51.634;5.562;2023-02-11T14:13:34;103457.59;;;9.94;100.00
59513;BME280;45330;51.634;5.562;2023-02-11T14:16:10;103457.28;;;9.87;100.00
59513;BME280;45330;51.634;5.562;2023-02-11T14:21:14;103453.06;;;9.89;100.00
59513;BME280;45330;51.634;5.562;2023-02-11T14:23:41;103450.44;;;9.89;100.00
59513;BME280;45330;51.634;5.562;2023-02-11T14:31:59;103461.63;;;9.86;100.00
59513;BME280;45330;51.634;5.562;2023-02-11T14:42:55;103453.03;;;9.66;100.00
59513;BME280;45330;51.634;5.562;2023-02-11T14:45:25;103461.44;;;9.60;100.00
59513;BME280;45330;51.634;5.562;2023-02-11T14:48:14;103438.56;;;9.52;100.00
59513;BME280;45330;51.634;5.562;2023-02-11T14:50:47;103455.31;;;9.58;100.00
59513;BME280;45330;51.634;5.562;2023-02-11T14:53:16;103470.91;;;9.58;100.00
59513;BME280;45330;51.634;5.562;2023-02-11T14:55:47;103463.16;;;9.60;100.00
59513;BME280;45330;51.634;5.562;2023-02-11T14:58:21;103466.75;;;9.62;100.00
59513;BME280;45330;51.634;5.562;2023-02-11T15:08:26;103469.34;;;9.62;100.00
59513;BME280;45330;51.634;5.562;2023-02-11T15:10:53;103464.94;;;9.61;100.00
59513;BME280;45330;51.634;5.562;2023-02-11T15:13:21;103467.28;;;9.55;100.00
59513;BME280;45330;51.634;5.562;2023-02-11T15:15:54;103466.22;;;9.50;100.00
59513;BME280;45330;51.634;5.562;2023-02-11T15:18:31;103470.53;;;9.49;100.00
59513;BME280;45330;51.634;5.562;2023-02-11T15:20:57;103475.59;;;9.46;100.00
59513;BME280;45330;51.634;5.562;2023-02-11T15:23:25;103452.50;;;9.31;100.00
59513;BME280;45330;51.634;5.562;2023-02-11T15:25:51;103471.69;;;9.35;100.00